sensor_id;sensor_type;location;lat;lon;timestamp;temperature;humidity
74171;DHT22;62526;50.948;6.590;2023-05-24T00:02:25;10.10;99.90
74171;DHT22;62526;50.948;6.590;2023-05-24T00:04:52;10.10;99.90
74171;DHT22;62526;50.948;6.590;2023-05-24T00:07:18;10.10;99.90
74171;DHT22;62526;50.948;6.590;2023-05-24T00:09:45;10.00;99.90
74171;DHT22;62526;50.948;6.590;2023-05-24T00:12:12;10.00;99.90
74171;DHT22;62526;50.948;6.590;2023-05-24T00:14:39;10.00;99.90
74171;DHT22;62526;50.948;6.590;2023-05-24T00:17:05;10.00;99.90
74171;DHT22;62526;50.948;6.590;2023-05-24T00:19:32;9.90;99.90
74171;DHT22;62526;50.948;6.590;2023-05-24T00:21:59;9.90;99.90
74171;DHT22;62526;50.948;6.590;2023-05-24T00:24:25;9.90;99.90
74171;DHT22;62526;50.948;6.590;2023-05-24T00:26:52;9.90;99.90
74171;DHT22;62526;50.948;6.590;2023-05-24T00:29:19;9.80;99.90
74171;DHT22;62526;50.948;6.590;2023-05-24T00:31:45;9.80;99.90
74171;DHT22;62526;50.948;6.590;2023-05-24T00:34:12;9.80;99.90
74171;DHT22;62526;50.948;6.590;2023-05-24T00:36:39;9.80;99.90
74171;DHT22;62526;50.948;6.590;2023-05-24T00:39:05;9.80;99.90
74171;DHT22;62526;50.948;6.590;2023-05-24T00:41:32;9.70;99.90
74171;DHT22;62526;50.948;6.590;2023-05-24T00:43:59;9.70;99.90
74171;DHT22;62526;50.948;6.590;2023-05-24T00:46:27;9.70;99.90
74171;DHT22;62526;50.948;6.590;2023-05-24T00:48:53;9.70;99.90
74171;DHT22;62526;50.948;6.590;2023-05-24T00:51:19;9.70;99.90
74171;DHT22;62526;50.948;6.590;2023-05-24T00:53:46;9.60;99.90
74171;DHT22;62526;50.948;6.590;2023-05-24T00:56:14;9.60;99.90
74171;DHT22;62526;50.948;6.590;2023-05-24T00:58:41;9.60;99.90
74171;DHT22;62526;50.948;6.590;2023-05-24T01:01:08;9.50;99.90
74171;DHT22;62526;50.948;6.590;2023-05-24T01:03:35;9.50;99.90
74171;DHT22;62526;50.948;6.590;2023-05-24T01:06:02;9.50;99.90
74171;DHT22;62526;50.948;6.590;2023-05-24T01:08:39;9.50;99.90
74171;DHT22;62526;50.948;6.590;2023-05-24T01:11:03;9.40;99.90
74171;DHT22;62526;50.948;6.590;2023-05-24T01:13:30;9.40;99.90
74171;DHT22;62526;50.948;6.590;2023-05-24T01:15:59;9.50;99.90
74171;DHT22;62526;50.948;6.590;2023-05-24T01:18:31;9.40;99.90
74171;DHT22;62526;50.948;6.590;2023-05-24T01:20:57;9.40;99.90
74171;DHT22;62526;50.948;6.590;2023-05-24T01:23:38;9.40;99.90
74171;DHT22;62526;50.948;6.590;2023-05-24T01:26:18;9.30;99.90
74171;DHT22;62526;50.948;6.590;2023-05-24T01:28:45;9.30;99.90
74171;DHT22;62526;50.948;6.590;2023-05-24T01:31:11;9.30;99.90
74171;DHT22;62526;50.948;6.590;2023-05-24T01:33:40;9.20;99.90
74171;DHT22;62526;50.948;6.590;2023-05-24T01:36:06;9.20;99.90
74171;DHT22;62526;50.948;6.590;2023-05-24T01:38:33;9.10;99.90
74171;DHT22;62526;50.948;6.590;2023-05-24T01:41:04;9.10;99.90
74171;DHT22;62526;50.948;6.590;2023-05-24T01:43:37;9.10;99.90
74171;DHT22;62526;50.948;6.590;2023-05-24T01:46:11;9.00;99.90
74171;DHT22;62526;50.948;6.590;2023-05-24T01:48:45;9.00;99.90
74171;DHT22;62526;50.948;6.590;2023-05-24T01:51:08;8.90;99.90
74171;DHT22;62526;50.948;6.590;2023-05-24T01:53:40;8.90;99.90
74171;DHT22;62526;50.948;6.590;2023-05-24T01:56:05;8.80;99.90
74171;DHT22;62526;50.948;6.590;2023-05-24T01:58:32;8.80;99.90
74171;DHT22;62526;50.948;6.590;2023-05-24T02:00:58;8.70;99.90
74171;DHT22;62526;50.948;6.590;2023-05-24T02:03:25;8.70;99.90
74171;DHT22;62526;50.948;6.590;2023-05-24T02:05:51;8.60;99.90
74171;DHT22;62526;50.948;6.590;2023-05-24T02:08:18;8.60;99.90
74171;DHT22;62526;50.948;6.590;2023-05-24T02:10:45;8.60;99.90
74171;DHT22;62526;50.948;6.590;2023-05-24T02:13:11;8.60;99.90
74171;DHT22;62526;50.948;6.590;2023-05-24T02:15:38;8.60;99.90
74171;DHT22;62526;50.948;6.590;2023-05-24T02:18:04;8.60;99.90
74171;DHT22;62526;50.948;6.590;2023-05-24T02:20:31;8.50;99.90
74171;DHT22;62526;50.948;6.590;2023-05-24T02:22:58;8.60;99.90
74171;DHT22;62526;50.948;6.590;2023-05-24T02:25:24;8.50;99.90
74171;DHT22;62526;50.948;6.590;2023-05-24T02:27:51;8.50;99.90
74171;DHT22;62526;50.948;6.590;2023-05-24T02:30:18;8.50;99.90
74171;DHT22;62526;50.948;6.590;2023-05-24T02:32:45;8.50;99.90
74171;DHT22;62526;50.948;6.590;2023-05-24T02:35:12;8.50;99.90
74171;DHT22;62526;50.948;6.590;2023-05-24T02:37:38;8.50;99.90
74171;DHT22;62526;50.948;6.590;2023-05-24T02:40:06;8.50;99.90
74171;DHT22;62526;50.948;6.590;2023-05-24T02:42:32;8.40;99.90
74171;DHT22;62526;50.948;6.590;2023-05-24T02:44:59;8.30;99.90
74171;DHT22;62526;50.948;6.590;2023-05-24T02:47:26;8.30;99.90
74171;DHT22;62526;50.948;6.590;2023-05-24T02:49:52;8.30;99.90
74171;DHT22;62526;50.948;6.590;2023-05-24T02:52:19;8.30;99.90
74171;DHT22;62526;50.948;6.590;2023-05-24T02:54:46;8.30;99.90
74171;DHT22;62526;50.948;6.590;2023-05-24T02:57:13;8.30;99.90
74171;DHT22;62526;50.948;6.590;2023-05-24T02:59:39;8.30;99.90
74171;DHT22;62526;50.948;6.590;2023-05-24T03:02:06;8.30;99.90
74171;DHT22;62526;50.948;6.590;2023-05-24T03:04:33;8.20;99.90
74171;DHT22;62526;50.948;6.590;2023-05-24T03:06:59;8.20;99.90
74171;DHT22;62526;50.948;6.590;2023-05-24T03:12:13;7.90;99.90
